TimeEST,TemperatureF,Dew PointF,Humidity,Sea Level PressureIn,VisibilityMPH,Wind Direction,Wind SpeedMPH,Gust SpeedMPH,PrecipitationIn,Events,Conditions,WindDirDegrees,DateUTC
12:55 AM,49.5,48.7,97,29.97,10.0,ENE,5.8,-,N/A,,Overcast,70,2012-12-09 05:55:00
1:55 AM,49.8,49.1,97,29.97,10.0,ENE,6.9,-,N/A,,Overcast,70,2012-12-09 06:55:00
2:55 AM,50.2,49.6,98,29.96,10.0,ENE,5.8,-,N/A,,Overcast,70,2012-12-09 07:55:00
3:55 AM,50.4,49.8,98,29.95,10.0,NE,5.8,-,N/A,,Overcast,50,2012-12-09 08:55:00
5:55 AM,50.5,50.4,99,29.94,5.0,ENE,4.6,-,N/A,,Overcast,70,2012-12-09 10:55:00
6:23 AM,50.0,50.0,100,29.92,3.0,East,5.8,-,N/A,Rain,Light Rain,80,2012-12-09 11:23:00
6:38 AM,50.0,50.0,100,29.91,1.5,East,6.9,-,N/A,,Overcast,80,2012-12-09 11:38:00
6:55 AM,50.7,50.4,99,29.93,1.5,East,8.1,-,N/A,,Overcast,100,2012-12-09 11:55:00
7:16 AM,51.8,50.0,94,29.91,1.8,NE,4.6,-,N/A,Rain-Thunderstorm,Light Thunderstorms and Rain,40,2012-12-09 12:16:00
7:31 AM,51.8,50.0,94,29.91,1.5,East,4.6,-,N/A,Rain-Thunderstorm,Heavy Thunderstorms and Rain,90,2012-12-09 12:31:00
7:48 AM,51.8,51.8,100,29.91,2.0,ENE,4.6,-,N/A,Rain-Thunderstorm,Thunderstorms and Rain,70,2012-12-09 12:48:00
7:55 AM,51.4,51.4,100,29.94,2.0,Calm,Calm,-,0.28,Rain-Thunderstorm,Light Thunderstorms and Rain,0,2012-12-09 12:55:00
8:08 AM,51.8,51.8,100,29.92,1.2,Calm,Calm,-,N/A,Rain,Light Rain,0,2012-12-09 13:08:00
8:24 AM,51.8,51.8,100,29.90,1.8,East,8.1,-,N/A,Rain,Light Rain,90,2012-12-09 13:24:00
8:39 AM,51.8,51.8,100,29.89,2.0,East,5.8,-,N/A,,Overcast,80,2012-12-09 13:39:00
8:55 AM,52.3,52.3,100,29.90,2.0,East,8.1,-,0.11,,Overcast,90,2012-12-09 13:55:00
9:55 AM,54.1,54.1,100,29.92,2.0,Calm,Calm,-,N/A,,Light Drizzle,0,2012-12-09 14:55:00
10:14 AM,55.4,55.4,100,29.89,2.0,East,3.5,-,N/A,Rain,Light Rain,80,2012-12-09 15:14:00
10:55 AM,64.4,51.8,64,29.89,5.0,East,3.5,-,N/A,,Mostly Cloudy,80,2012-12-09 15:55:00
11:55 AM,60.8,55.4,82,29.88,7.0,South,10.4,-,N/A,,Overcast,170,2012-12-09 16:55:00
12:55 PM,62.6,57.2,82,29.92,7.0,South,13.8,-,N/A,,Overcast,180,2012-12-09 17:55:00
1:15 PM,62.6,57.2,82,29.85,7.0,South,11.5,-,N/A,,Overcast,180,2012-12-09 18:15:00
1:55 PM,64.4,57.2,77,29.83,10.0,South,13.8,20.7,N/A,,Overcast,190,2012-12-09 18:55:00
2:55 PM,62.6,57.2,82,29.82,10.0,South,11.5,17.3,N/A,,Overcast,180,2012-12-09 19:55:00
3:55 PM,62.6,57.2,82,29.89,10.0,South,11.5,17.3,N/A,,Overcast,190,2012-12-09 20:55:00
4:56 PM,62.6,57.2,82,29.89,10.0,South,11.5,-,N/A,,Overcast,190,2012-12-09 21:56:00
5:55 PM,60.8,57.2,88,29.87,10.0,South,9.2,-,N/A,,Overcast,190,2012-12-09 22:55:00
6:55 PM,60.8,57.2,88,29.85,7.0,South,9.2,-,0.00,Rain,Light Rain,190,2012-12-09 23:55:00
7:55 PM,60.8,57.2,88,29.82,7.0,South,13.8,-,0.00,,Overcast,190,2012-12-10 00:55:00
8:57 PM,62.6,57.2,82,29.78,7.0,South,11.5,-,N/A,,Overcast,190,2012-12-10 01:57:00
9:41 PM,62.6,57.2,82,29.72,7.0,South,11.5,17.3,N/A,Thunderstorm,Thunderstorm,190,2012-12-10 02:41:00
9:55 PM,62.6,57.2,82,29.76,7.0,South,11.5,17.3,0.00,Rain-Thunderstorm,Light Thunderstorms and Rain,190,2012-12-10 02:55:00
10:07 PM,62.6,57.2,82,29.76,1.5,West,17.3,28.8,N/A,Rain-Thunderstorm,Heavy Thunderstorms and Rain,270,2012-12-10 03:07:00
10:13 PM,57.2,57.2,100,29.77,3.0,West,17.3,28.8,N/A,Rain-Thunderstorm,Light Thunderstorms and Rain,270,2012-12-10 03:13:00
10:32 PM,59.0,57.2,94,29.77,3.0,West,11.5,17.3,N/A,Rain,Light Rain,270,2012-12-10 03:32:00
10:55 PM,59.0,57.2,94,29.83,3.0,West,11.5,17.3,N/A,Rain,Light Rain,270,2012-12-10 03:55:00
11:52 PM,57.2,55.4,94,29.74,3.0,Variable,3.5,-,N/A,Rain,Light Rain,0,2012-12-10 04:52:00
11:54 PM,57.2,55.4,94,29.81,3.0,Variable,3.5,-,N/A,Rain,Light Rain,0,2012-12-10 04:54:00